Time;durP1;ratioP1;P1;durP2;ratioP2;P2;SDS_P1;SDS_P2;PMS_P1;PMS_P2;Temp;Humidity;BMP_temperature;BMP_pressure;BME280_temperature;BME280_humidity;BME280_pressure;Samples;Min_cycle;Max_cycle;Signal;HPM_P1;HPM_P2
2022/09/22 00:00:00;;;;;;;3.33;2.42;;;;;;;;;;2303597;58;21174;-75
2022/09/22 00:02:28;;;;;;;3.87;2.50;;;;;;;;;;2305550;58;21644;-76
2022/09/22 00:04:55;;;;;;;3.05;2.20;;;;;;;;;;2305662;58;21078;-77
2022/09/22 00:07:22;;;;;;;2.22;1.77;;;;;;;;;;2305393;58;21134;-76
2022/09/22 00:09:50;;;;;;;2.40;2.15;;;;;;;;;;2306324;58;21074;-75
2022/09/22 00:12:17;;;;;;;2.85;2.45;;;;;;;;;;2305983;58;21058;-76
2022/09/22 00:14:44;;;;;;;2.35;2.10;;;;;;;;;;2305313;58;21038;-75
2022/09/22 00:17:11;;;;;;;4.40;2.28;;;;;;;;;;2304411;58;21130;-76
2022/09/22 00:19:38;;;;;;;4.07;2.50;;;;;;;;;;2305883;58;21161;-75
2022/09/22 00:22:06;;;;;;;3.53;2.40;;;;;;;;;;2543758;54;21085;-76
2022/09/22 00:24:33;;;;;;;3.58;2.55;;;;;;;;;;2305064;58;21086;-75
2022/09/22 00:27:01;;;;;;;6.12;2.53;;;;;;;;;;2305030;58;21125;-75
2022/09/22 00:29:29;;;;;;;3.60;2.00;;;;;;;;;;2305727;58;21050;-75
2022/09/22 00:31:56;;;;;;;3.62;2.20;;;;;;;;;;2305596;58;21055;-75
2022/09/22 00:34:25;;;;;;;3.92;2.95;;;;;;;;;;2305856;58;21071;-76
2022/09/22 00:36:52;;;;;;;2.40;1.90;;;;;;;;;;2304948;58;21070;-77
2022/09/22 00:39:19;;;;;;;4.18;2.40;;;;;;;;;;2306122;58;21050;-75
2022/09/22 00:41:48;;;;;;;4.65;2.72;;;;;;;;;;2305755;58;21058;-75
2022/09/22 00:44:33;;;;;;;3.75;2.20;;;;;;;;;;2305840;58;21082;-75
2022/09/22 00:47:01;;;;;;;2.65;2.00;;;;;;;;;;2305718;58;21061;-77
2022/09/22 00:49:31;;;;;;;4.35;2.10;;;;;;;;;;2304491;58;21142;-79
2022/09/22 00:51:59;;;;;;;3.85;2.33;;;;;;;;;;2305992;58;21062;-77
2022/09/22 00:54:27;;;;;;;2.92;2.30;;;;;;;;;;2305457;58;21129;-75
2022/09/22 00:56:56;;;;;;;2.35;2.10;;;;;;;;;;2305571;58;21616;-75
2022/09/22 00:59:24;;;;;;;3.12;2.28;;;;;;;;;;2305834;58;21205;-78
2022/09/22 01:01:51;;;;;;;3.03;2.05;;;;;;;;;;2306407;58;21096;-75
2022/09/22 01:04:18;;;;;;;3.35;1.98;;;;;;;;;;2306185;58;21054;-75
2022/09/22 01:06:46;;;;;;;3.35;2.35;;;;;;;;;;2304566;58;21054;-75
2022/09/22 01:09:13;;;;;;;2.55;2.00;;;;;;;;;;2305936;58;21110;-74
2022/09/22 01:11:42;;;;;;;2.87;2.00;;;;;;;;;;2306435;58;21065;-75
2022/09/22 01:14:17;;;;;;;3.87;2.22;;;;;;;;;;2306346;58;21102;-75
2022/09/22 01:16:50;;;;;;;4.93;2.33;;;;;;;;;;2304134;58;21556;-75
2022/09/22 01:19:35;;;;;;;2.85;2.17;;;;;;;;;;2305479;58;21118;-75
2022/09/22 01:22:10;;;;;;;3.67;2.30;;;;;;;;;;2305947;58;21125;-74
2022/09/22 01:25:06;;;;;;;2.42;1.80;;;;;;;;;;2304582;58;21077;-76
2022/09/22 01:27:42;;;;;;;3.35;2.37;;;;;;;;;;2305975;58;21107;-75
2022/09/22 01:30:18;;;;;;;2.33;1.77;;;;;;;;;;2306156;58;21070;-74
2022/09/22 01:32:48;;;;;;;2.62;2.10;;;;;;;;;;2305008;58;21769;-76
2022/09/22 01:35:20;;;;;;;2.35;1.77;;;;;;;;;;2305139;58;21042;-75
2022/09/22 01:37:53;;;;;;;2.70;1.92;;;;;;;;;;2306224;58;21038;-74
2022/09/22 01:40:22;;;;;;;3.53;2.30;;;;;;;;;;2305962;58;21133;-75
2022/09/22 01:42:52;;;;;;;2.15;1.70;;;;;;;;;;2536488;51;74721;-80
2022/09/22 01:45:21;;;;;;;2.65;1.98;;;;;;;;;;2294644;58;21069;-79
2022/09/22 01:47:52;;;;;;;4.05;1.90;;;;;;;;;;2294644;58;21679;-80
2022/09/22 01:50:21;;;;;;;2.08;1.67;;;;;;;;;;2293200;58;21086;-80
2022/09/22 01:52:48;;;;;;;2.00;1.70;;;;;;;;;;2313486;58;21115;-79
2022/09/22 01:55:18;;;;;;;2.78;2.00;;;;;;;;;;2321027;58;21331;-79
2022/09/22 01:57:48;;;;;;;2.45;1.80;;;;;;;;;;2320797;58;21708;-80
2022/09/22 02:00:16;;;;;;;2.10;1.90;;;;;;;;;;2321416;58;21143;-80
2022/09/22 02:02:47;;;;;;;3.60;2.28;;;;;;;;;;2321297;58;21143;-81
2022/09/22 02:05:17;;;;;;;3.80;1.87;;;;;;;;;;2561913;54;21175;-78
2022/09/22 02:07:47;;;;;;;2.60;2.05;;;;;;;;;;2562660;54;21628;-80
2022/09/22 02:10:17;;;;;;;3.55;2.10;;;;;;;;;;2321190;58;21597;-81
2022/09/22 02:12:46;;;;;;;1.83;1.60;;;;;;;;;;2562522;53;21094;-80
2022/09/22 02:18:03;;;;;;;3.62;1.92;;;;;;;;;;2321016;58;21354;-79
2022/09/22 02:20:30;;;;;;;2.72;1.92;;;;;;;;;;2320860;58;21117;-79
2022/09/22 02:22:57;;;;;;;2.00;1.55;;;;;;;;;;2319905;58;21128;-79
2022/09/22 02:25:25;;;;;;;2.95;1.83;;;;;;;;;;2320420;58;21057;-79
2022/09/22 02:27:53;;;;;;;2.05;1.60;;;;;;;;;;2320849;58;21049;-80
2022/09/22 02:30:21;;;;;;;2.45;2.00;;;;;;;;;;2320480;58;21054;-80
2022/09/22 02:32:49;;;;;;;2.72;1.87;;;;;;;;;;2321093;58;21041;-80
2022/09/22 02:35:17;;;;;;;6.30;2.10;;;;;;;;;;2320441;58;21136;-80
2022/09/22 02:37:49;;;;;;;5.20;1.80;;;;;;;;;;2320842;58;21032;-80
2022/09/22 02:40:22;;;;;;;2.15;1.83;;;;;;;;;;2561204;54;21132;-80
2022/09/22 02:42:52;;;;;;;2.58;1.87;;;;;;;;;;2320830;58;21061;-80
2022/09/22 02:45:22;;;;;;;1.58;1.40;;;;;;;;;;2320072;58;21041;-78
2022/09/22 02:47:51;;;;;;;3.25;1.80;;;;;;;;;;2562571;54;21112;-80
2022/09/22 02:50:20;;;;;;;3.53;1.90;;;;;;;;;;2561365;54;21128;-78
2022/09/22 02:52:51;;;;;;;2.87;1.85;;;;;;;;;;2562372;53;21085;-81
2022/09/22 02:55:18;;;;;;;3.17;2.00;;;;;;;;;;2562905;54;21132;-79
2022/09/22 02:57:46;;;;;;;3.28;1.90;;;;;;;;;;2320460;58;21041;-82
2022/09/22 03:00:14;;;;;;;3.22;1.70;;;;;;;;;;2561474;54;21147;-81
2022/09/22 03:02:41;;;;;;;2.00;1.70;;;;;;;;;;2321365;58;21664;-80
2022/09/22 03:05:08;;;;;;;4.25;1.95;;;;;;;;;;2321206;58;21084;-80
2022/09/22 03:07:35;;;;;;;5.20;1.90;;;;;;;;;;2563160;53;21133;-81
2022/09/22 03:10:03;;;;;;;1.90;1.60;;;;;;;;;;2321621;58;21053;-81
2022/09/22 03:12:30;;;;;;;1.73;1.58;;;;;;;;;;2321696;57;21637;-81
2022/09/22 03:14:57;;;;;;;4.05;1.80;;;;;;;;;;2563308;54;21093;-80
2022/09/22 03:17:24;;;;;;;3.03;1.52;;;;;;;;;;2320771;58;21136;-80
2022/09/22 03:19:52;;;;;;;1.83;1.62;;;;;;;;;;2563559;54;21117;-81
2022/09/22 03:22:19;;;;;;;2.97;1.75;;;;;;;;;;2321556;58;21041;-80
2022/09/22 03:24:46;;;;;;;2.42;1.83;;;;;;;;;;2321802;58;21116;-79
2022/09/22 03:27:13;;;;;;;2.42;1.52;;;;;;;;;;2321175;58;21557;-79
2022/09/22 03:29:41;;;;;;;1.92;1.70;;;;;;;;;;2321529;58;21072;-81
2022/09/22 03:32:08;;;;;;;2.08;1.75;;;;;;;;;;2320979;58;21144;-80
2022/09/22 03:34:35;;;;;;;2.72;1.77;;;;;;;;;;2562063;54;21633;-80
2022/09/22 03:37:02;;;;;;;3.25;2.10;;;;;;;;;;2320149;58;21084;-80
2022/09/22 03:39:29;;;;;;;2.30;2.00;;;;;;;;;;2321495;58;21061;-79
2022/09/22 03:41:56;;;;;;;2.03;1.75;;;;;;;;;;2562929;53;21076;-81
2022/09/22 03:44:25;;;;;;;2.35;1.87;;;;;;;;;;2563318;54;21069;-81
2022/09/22 03:46:53;;;;;;;2.15;1.52;;;;;;;;;;2321173;58;21628;-80
2022/09/22 03:49:20;;;;;;;1.80;1.70;;;;;;;;;;2321311;58;21136;-80
2022/09/22 03:51:47;;;;;;;3.85;2.15;;;;;;;;;;2320935;58;21067;-80
2022/09/22 03:54:14;;;;;;;2.30;1.83;;;;;;;;;;2563177;54;21135;-81
2022/09/22 03:56:41;;;;;;;3.37;1.80;;;;;;;;;;2561620;54;21556;-80
2022/09/22 03:59:09;;;;;;;2.55;1.70;;;;;;;;;;2321596;58;21137;-80
2022/09/22 04:01:36;;;;;;;1.85;1.70;;;;;;;;;;2562784;53;21041;-80
2022/09/22 04:04:04;;;;;;;1.73;1.62;;;;;;;;;;2321673;58;21045;-80
2022/09/22 04:06:31;;;;;;;2.15;1.60;;;;;;;;;;2320552;58;21085;-80
2022/09/22 04:08:58;;;;;;;4.53;1.90;;;;;;;;;;2321373;58;21354;-80
2022/09/22 04:11:25;;;;;;;2.22;1.70;;;;;;;;;;2563242;53;21104;-80
2022/09/22 04:13:53;;;;;;;1.87;1.52;;;;;;;;;;2321690;58;21065;-80
2022/09/22 04:16:20;;;;;;;3.62;2.00;;;;;;;;;;2319188;58;21576;-81
2022/09/22 04:18:47;;;;;;;2.75;1.77;;;;;;;;;;2563091;54;21073;-80
2022/09/22 04:21:14;;;;;;;3.35;1.37;;;;;;;;;;2320462;58;21422;-80
2022/09/22 04:23:41;;;;;;;1.85;1.70;;;;;;;;;;2562013;54;21049;-79
2022/09/22 04:26:09;;;;;;;1.60;1.50;;;;;;;;;;2320972;58;21065;-80
2022/09/22 04:28:36;;;;;;;2.78;1.70;;;;;;;;;;2321351;58;21538;-80
2022/09/22 04:31:03;;;;;;;2.78;1.90;;;;;;;;;;2321118;58;21060;-80
2022/09/22 04:33:30;;;;;;;8.80;2.47;;;;;;;;;;2562762;53;21036;-79
2022/09/22 04:35:57;;;;;;;3.58;2.12;;;;;;;;;;2561991;54;21080;-80
2022/09/22 04:38:24;;;;;;;4.70;2.62;;;;;;;;;;2562613;54;21112;-80
2022/09/22 04:40:53;;;;;;;3.22;2.35;;;;;;;;;;2320725;58;21061;-80
2022/09/22 04:43:20;;;;;;;2.97;2.05;;;;;;;;;;2320654;58;21124;-80
2022/09/22 04:45:47;;;;;;;3.75;2.00;;;;;;;;;;2320727;58;21196;-79
2022/09/22 04:48:14;;;;;;;5.32;2.40;;;;;;;;;;2562739;54;21117;-81
2022/09/22 04:50:41;;;;;;;3.25;2.17;;;;;;;;;;2320827;58;21076;-79
2022/09/22 04:53:09;;;;;;;2.55;2.03;;;;;;;;;;2321121;58;21058;-79
2022/09/22 04:55:36;;;;;;;3.42;2.50;;;;;;;;;;2562279;54;21737;-81
2022/09/22 04:58:03;;;;;;;2.12;1.80;;;;;;;;;;2320788;58;21064;-80
2022/09/22 05:00:31;;;;;;;2.85;2.30;;;;;;;;;;2563027;54;21191;-81
2022/09/22 05:02:59;;;;;;;4.87;2.50;;;;;;;;;;2320999;58;21057;-79
2022/09/22 05:05:26;;;;;;;3.08;2.53;;;;;;;;;;2562479;54;21064;-79
2022/09/22 05:07:53;;;;;;;3.87;2.72;;;;;;;;;;2562267;54;21060;-80
2022/09/22 05:10:23;;;;;;;4.30;3.03;;;;;;;;;;2562991;54;21620;-79
2022/09/22 05:12:52;;;;;;;3.78;3.10;;;;;;;;;;2321348;58;21121;-79
2022/09/22 05:15:20;;;;;;;3.45;3.05;;;;;;;;;;2561566;54;22224;-79
2022/09/22 05:17:47;;;;;;;4.35;3.08;;;;;;;;;;2562712;54;21549;-79
2022/09/22 05:20:14;;;;;;;4.28;3.55;;;;;;;;;;2321167;58;21080;-79
2022/09/22 05:22:42;;;;;;;4.50;3.33;;;;;;;;;;2562407;53;21140;-80
2022/09/22 05:25:10;;;;;;;4.55;3.30;;;;;;;;;;2562836;54;21103;-80
2022/09/22 05:27:42;;;;;;;3.53;3.20;;;;;;;;;;2319779;58;21728;-79
2022/09/22 05:30:10;;;;;;;3.00;2.70;;;;;;;;;;2562952;54;21118;-80
2022/09/22 05:32:38;;;;;;;6.60;4.25;;;;;;;;;;2319102;58;21109;-80
2022/09/22 05:35:06;;;;;;;5.85;3.22;;;;;;;;;;2562315;54;21561;-78
2022/09/22 05:37:33;;;;;;;4.22;2.85;;;;;;;;;;2319359;58;21073;-80
2022/09/22 05:40:00;;;;;;;3.58;3.22;;;;;;;;;;2320946;58;21057;-79
2022/09/22 05:42:27;;;;;;;2.97;2.67;;;;;;;;;;2320573;58;21061;-81
2022/09/22 05:44:54;;;;;;;3.00;2.70;;;;;;;;;;2561729;54;21058;-79
2022/09/22 05:47:21;;;;;;;3.15;2.15;;;;;;;;;;2561884;53;21160;-81
2022/09/22 05:49:49;;;;;;;2.35;2.10;;;;;;;;;;2560062;54;21136;-81
2022/09/22 05:52:16;;;;;;;3.17;2.30;;;;;;;;;;2563023;53;21136;-81
2022/09/22 05:54:43;;;;;;;2.65;2.10;;;;;;;;;;2321671;58;21044;-80
2022/09/22 05:57:10;;;;;;;2.50;2.08;;;;;;;;;;2321115;58;21144;-80
2022/09/22 05:59:37;;;;;;;3.12;2.42;;;;;;;;;;2321583;58;21053;-80
2022/09/22 06:02:07;;;;;;;3.20;2.10;;;;;;;;;;2564170;54;21157;-80
2022/09/22 06:04:34;;;;;;;3.20;2.35;;;;;;;;;;2321435;58;21048;-81
2022/09/22 06:07:01;;;;;;;3.30;2.20;;;;;;;;;;2320971;58;21101;-76
2022/09/22 06:09:28;;;;;;;2.53;2.33;;;;;;;;;;2561686;54;21135;-81
2022/09/22 06:11:56;;;;;;;2.90;2.42;;;;;;;;;;2563350;53;21600;-79
2022/09/22 06:14:23;;;;;;;2.47;1.98;;;;;;;;;;2563553;54;21322;-80
2022/09/22 06:16:50;;;;;;;2.40;1.85;;;;;;;;;;2563478;54;21060;-80
2022/09/22 06:19:17;;;;;;;2.03;1.83;;;;;;;;;;2321722;58;21061;-79
2022/09/22 06:21:45;;;;;;;3.30;1.92;;;;;;;;;;2563219;53;21137;-79
2022/09/22 06:24:12;;;;;;;2.53;1.80;;;;;;;;;;2321243;58;21770;-80
2022/09/22 06:26:39;;;;;;;2.12;1.92;;;;;;;;;;2321350;58;21064;-79
2022/09/22 06:29:07;;;;;;;4.35;2.12;;;;;;;;;;2320929;58;21135;-79
2022/09/22 06:31:34;;;;;;;4.12;2.53;;;;;;;;;;2561222;53;21057;-80
2022/09/22 06:34:01;;;;;;;2.55;1.90;;;;;;;;;;2319912;58;21076;-80
2022/09/22 06:36:30;;;;;;;2.80;2.30;;;;;;;;;;2320677;58;21148;-79
2022/09/22 06:38:57;;;;;;;3.20;2.37;;;;;;;;;;2563188;54;21068;-80
2022/09/22 06:41:25;;;;;;;4.68;3.03;;;;;;;;;;2320649;58;21069;-79
2022/09/22 06:43:54;;;;;;;3.12;2.65;;;;;;;;;;2563486;54;21057;-80
2022/09/22 06:46:23;;;;;;;4.12;2.58;;;;;;;;;;2562347;54;21208;-79
2022/09/22 06:48:50;;;;;;;3.53;2.60;;;;;;;;;;2321202;58;21128;-80
2022/09/22 06:51:18;;;;;;;5.75;2.97;;;;;;;;;;2562801;53;21191;-80
2022/09/22 06:53:46;;;;;;;4.62;2.87;;;;;;;;;;2320772;58;21084;-79
2022/09/22 06:56:13;;;;;;;2.85;2.30;;;;;;;;;;2321100;58;21129;-79
2022/09/22 06:58:43;;;;;;;6.82;3.60;;;;;;;;;;2321765;58;21131;-80
2022/09/22 07:01:10;;;;;;;4.87;3.28;;;;;;;;;;2563165;53;21081;-80
2022/09/22 07:03:39;;;;;;;3.92;3.10;;;;;;;;;;2562733;54;21112;-79
2022/09/22 07:06:07;;;;;;;4.90;3.40;;;;;;;;;;2559283;54;21072;-78
2022/09/22 07:08:37;;;;;;;5.18;2.62;;;;;;;;;;2562353;54;21103;-80
2022/09/22 07:11:06;;;;;;;3.47;2.83;;;;;;;;;;2321884;58;21132;-80
2022/09/22 07:13:38;;;;;;;3.75;2.85;;;;;;;;;;2561277;54;21084;-83
2022/09/22 07:16:06;;;;;;;8.82;4.07;;;;;;;;;;2562047;54;21079;-83
2022/09/22 07:18:34;;;;;;;8.32;3.92;;;;;;;;;;2320417;58;21448;-83
2022/09/22 07:21:02;;;;;;;6.78;4.65;;;;;;;;;;2562536;53;21131;-84
2022/09/22 07:23:29;;;;;;;6.15;4.35;;;;;;;;;;2321221;58;21092;-83
2022/09/22 07:25:59;;;;;;;5.05;4.10;;;;;;;;;;2319659;58;21192;-82
2022/09/22 07:28:27;;;;;;;5.45;4.75;;;;;;;;;;2562664;54;21060;-82
2022/09/22 07:30:56;;;;;;;5.82;4.45;;;;;;;;;;2320628;58;21362;-83
2022/09/22 07:33:23;;;;;;;7.45;4.65;;;;;;;;;;2562578;53;21120;-83
2022/09/22 07:36:00;;;;;;;7.12;4.30;;;;;;;;;;2319768;58;21120;-82
2022/09/22 07:38:29;;;;;;;8.40;5.28;;;;;;;;;;2321787;58;21073;-82
2022/09/22 07:40:58;;;;;;;7.72;4.95;;;;;;;;;;2319769;58;21127;-82
2022/09/22 07:43:26;;;;;;;6.28;4.70;;;;;;;;;;2564290;53;21137;-83
2022/09/22 07:45:54;;;;;;;7.18;5.15;;;;;;;;;;2594395;53;22282;-82
2022/09/22 07:48:36;;;;;;;6.37;4.55;;;;;;;;;;2595208;53;21078;-81
2022/09/22 07:51:04;;;;;;;6.90;4.57;;;;;;;;;;2347979;57;21037;-83
2022/09/22 07:53:32;;;;;;;8.55;4.55;;;;;;;;;;2339451;57;21670;-83
2022/09/22 07:56:03;;;;;;;8.90;5.90;;;;;;;;;;2321288;58;21647;-83
2022/09/22 07:58:30;;;;;;;8.00;5.25;;;;;;;;;;2562683;54;21044;-82
2022/09/22 08:00:57;;;;;;;9.95;5.10;;;;;;;;;;2561075;54;21103;-82
2022/09/22 08:03:24;;;;;;;8.25;5.87;;;;;;;;;;2562279;53;21604;-82
2022/09/22 08:05:52;;;;;;;7.93;5.03;;;;;;;;;;2320662;58;21103;-82
2022/09/22 08:08:19;;;;;;;12.37;5.25;;;;;;;;;;2321296;58;21143;-81
2022/09/22 08:10:47;;;;;;;10.00;5.32;;;;;;;;;;2562604;54;21056;-81
2022/09/22 08:13:15;;;;;;;8.23;5.45;;;;;;;;;;2562270;53;21123;-81
2022/09/22 08:15:42;;;;;;;8.50;5.45;;;;;;;;;;2562226;54;21032;-82
2022/09/22 08:18:09;;;;;;;14.82;5.37;;;;;;;;;;2562240;54;21112;-82
2022/09/22 08:20:36;;;;;;;6.80;4.57;;;;;;;;;;2562806;54;21092;-81
2022/09/22 08:23:04;;;;;;;7.70;4.50;;;;;;;;;;2321395;58;21675;-82
2022/09/22 08:25:31;;;;;;;10.35;5.87;;;;;;;;;;2321542;58;21060;-81
2022/09/22 08:28:01;;;;;;;5.43;4.78;;;;;;;;;;2563903;54;21580;-82
2022/09/22 08:30:28;;;;;;;9.27;5.20;;;;;;;;;;2561522;54;21580;-82
2022/09/22 08:32:55;;;;;;;7.93;5.53;;;;;;;;;;2321789;58;21039;-82
2022/09/22 08:35:22;;;;;;;8.23;5.65;;;;;;;;;;2321244;58;21096;-82
2022/09/22 08:37:50;;;;;;;8.43;5.53;;;;;;;;;;2321857;58;21052;-82
2022/09/22 08:40:22;;;;;;;8.88;5.07;;;;;;;;;;2321054;58;21075;-82
2022/09/22 08:42:51;;;;;;;9.10;4.95;;;;;;;;;;2319182;58;21119;-82
2022/09/22 08:45:24;;;;;;;10.88;4.87;;;;;;;;;;2320125;58;21143;-82
2022/09/22 08:53:33;;;;;;;5.55;4.28;;;;;;;;;;2321820;58;21088;-82
2022/09/22 08:56:05;;;;;;;5.82;4.37;;;;;;;;;;2321451;58;21546;-81
2022/09/22 08:58:40;;;;;;;9.68;5.00;;;;;;;;;;2563571;54;21052;-81
2022/09/22 09:01:13;;;;;;;8.93;4.93;;;;;;;;;;2321195;58;21627;-79
2022/09/22 09:03:50;;;;;;;6.12;4.12;;;;;;;;;;2321057;58;21139;-85
2022/09/22 09:06:20;;;;;;;8.77;4.75;;;;;;;;;;2563588;54;21568;-84
2022/09/22 09:08:54;;;;;;;8.07;5.07;;;;;;;;;;2562399;54;21051;-84
2022/09/22 09:11:26;;;;;;;8.23;4.47;;;;;;;;;;2322608;58;21066;-84
2022/09/22 09:13:59;;;;;;;7.15;4.30;;;;;;;;;;2322534;58;21104;-84
2022/09/22 09:16:32;;;;;;;12.20;3.87;;;;;;;;;;2322189;58;21095;-84
2022/09/22 09:19:02;;;;;;;9.45;4.22;;;;;;;;;;2564356;54;21066;-85
2022/09/22 09:21:31;;;;;;;8.27;4.65;;;;;;;;;;2564595;54;21639;-85
2022/09/22 09:24:00;;;;;;;8.88;4.28;;;;;;;;;;2319744;57;21056;-86
2022/09/22 09:26:28;;;;;;;10.43;4.35;;;;;;;;;;2321274;58;21564;-84
2022/09/22 09:28:57;;;;;;;8.07;4.93;;;;;;;;;;2322373;58;21034;-86
2022/09/22 09:31:28;;;;;;;6.43;4.53;;;;;;;;;;2564243;54;21060;-84
2022/09/22 09:33:58;;;;;;;6.28;4.22;;;;;;;;;;2564363;53;21622;-84
2022/09/22 09:36:28;;;;;;;6.28;4.32;;;;;;;;;;2563889;54;21191;-85
2022/09/22 09:38:56;;;;;;;5.47;3.67;;;;;;;;;;2322247;58;21115;-84
2022/09/22 09:41:25;;;;;;;5.72;3.60;;;;;;;;;;2563957;54;21535;-84
2022/09/22 09:43:53;;;;;;;5.15;3.55;;;;;;;;;;2562864;53;21055;-84
2022/09/22 09:46:26;;;;;;;5.50;3.92;;;;;;;;;;2563910;53;21052;-84
2022/09/22 09:48:52;;;;;;;;;;;;;;;;;;2568092;54;21108;-84
2022/09/22 09:51:20;;;;;;;4.95;3.08;;;;;;;;;;2322088;58;20081;-83
2022/09/22 09:53:48;;;;;;;8.43;3.45;;;;;;;;;;2564303;53;21136;-85
2022/09/22 09:56:23;;;;;;;6.20;3.30;;;;;;;;;;2563678;54;21104;-85
2022/09/22 10:01:41;;;;;;;5.87;3.05;;;;;;;;;;2321921;58;21067;-83
2022/09/22 10:04:17;;;;;;;4.40;2.45;;;;;;;;;;2322676;58;21127;-84
2022/09/22 10:06:45;;;;;;;11.20;3.65;;;;;;;;;;2321126;58;21159;-77
2022/09/22 10:09:22;;;;;;;5.18;3.12;;;;;;;;;;2562221;54;21146;-80
2022/09/22 10:11:57;;;;;;;4.87;3.05;;;;;;;;;;2320444;58;21144;-81
2022/09/22 10:14:26;;;;;;;4.25;2.42;;;;;;;;;;2560699;53;21064;-81
2022/09/22 10:16:54;;;;;;;5.53;2.95;;;;;;;;;;2562318;54;21629;-83
2022/09/22 10:19:22;;;;;;;2.97;2.03;;;;;;;;;;2319442;58;21151;-83
2022/09/22 10:21:49;;;;;;;3.25;2.20;;;;;;;;;;2561809;54;21056;-80
2022/09/22 10:24:24;;;;;;;4.20;2.35;;;;;;;;;;2560984;53;21059;-82
2022/09/22 10:26:55;;;;;;;6.82;2.10;;;;;;;;;;2560824;54;21191;-80
2022/09/22 10:29:22;;;;;;;7.87;3.15;;;;;;;;;;2562120;54;21059;-82
2022/09/22 10:32:23;;;;;;;6.93;2.87;;;;;;;;;;2320903;58;21032;-82
2022/09/22 10:37:30;;;;;;;2.80;2.08;;;;;;;;;;2602742;53;22055;-79
2022/09/22 10:39:58;;;;;;;5.00;2.22;;;;;;;;;;2593432;53;21066;-78
2022/09/22 10:42:31;;;;;;;5.22;1.95;;;;;;;;;;2346355;57;21065;-82
2022/09/22 10:45:01;;;;;;;3.97;1.90;;;;;;;;;;2370997;56;21031;-78
2022/09/22 10:47:32;;;;;;;3.70;1.80;;;;;;;;;;2373616;56;21095;-77
2022/09/22 10:50:08;;;;;;;3.55;1.58;;;;;;;;;;2374542;56;21102;-78
2022/09/22 10:52:43;;;;;;;2.12;1.75;;;;;;;;;;2627181;52;21121;-82
2022/09/22 10:55:17;;;;;;;3.03;1.65;;;;;;;;;;2627036;52;21480;-78
2022/09/22 10:58:06;;;;;;;3.60;1.60;;;;;;;;;;2627632;52;21525;-78
2022/09/22 11:00:34;;;;;;;3.33;1.92;;;;;;;;;;2374375;56;21043;-79
2022/09/22 11:03:27;;;;;;;1.75;1.23;;;;;;;;;;2374600;56;21122;-77
2022/09/22 11:14:35;;;;;;;2.08;1.65;;;;;;;;;;2374346;56;21058;-78
2022/09/22 11:17:01;;;;;;;;;;;;;;;;;;2377458;56;21063;-77
2022/09/22 11:19:42;;;;;;;3.00;1.20;;;;;;;;;;2627603;52;20184;-82
2022/09/22 11:22:23;;;;;;;4.90;1.30;;;;;;;;;;2373941;56;21604;-78
2022/09/22 11:25:02;;;;;;;4.07;1.90;;;;;;;;;;2626950;52;21541;-77
2022/09/22 11:27:35;;;;;;;4.68;1.55;;;;;;;;;;2627634;52;22175;-78
2022/09/22 11:30:07;;;;;;;1.67;1.00;;;;;;;;;;2373738;56;21317;-78
2022/09/22 11:32:46;;;;;;;2.92;1.15;;;;;;;;;;2374127;56;21058;-78
2022/09/22 11:35:41;;;;;;;3.47;1.33;;;;;;;;;;2373859;56;21022;-80
2022/09/22 11:38:23;;;;;;;2.42;1.30;;;;;;;;;;2589237;52;21047;-78
2022/09/22 11:40:56;;;;;;;2.80;0.90;;;;;;;;;;2374039;56;21627;-80
2022/09/22 11:43:39;;;;;;;2.22;1.17;;;;;;;;;;2374130;56;21541;-78
2022/09/22 11:46:10;;;;;;;2.15;1.10;;;;;;;;;;2374485;56;21035;-78
2022/09/22 11:48:45;;;;;;;3.22;1.30;;;;;;;;;;2373381;56;21051;-79
2022/09/22 11:51:20;;;;;;;4.07;1.15;;;;;;;;;;2373547;56;21113;-78
2022/09/22 11:53:57;;;;;;;2.60;1.15;;;;;;;;;;2373070;56;21070;-78
2022/09/22 11:56:32;;;;;;;5.47;0.90;;;;;;;;;;2625161;52;21039;-78
2022/09/22 11:59:01;;;;;;;3.25;1.15;;;;;;;;;;2373124;56;21556;-80
2022/09/22 12:01:31;;;;;;;5.32;1.20;;;;;;;;;;2373510;56;21130;-77
2022/09/22 12:04:01;;;;;;;2.10;1.10;;;;;;;;;;2373537;56;21035;-78
2022/09/22 12:06:31;;;;;;;3.45;1.42;;;;;;;;;;2625959;52;21059;-81
2022/09/22 12:09:00;;;;;;;2.45;1.12;;;;;;;;;;2373482;56;21055;-79
2022/09/22 12:11:28;;;;;;;2.28;1.10;;;;;;;;;;2373533;56;21039;-79
2022/09/22 12:13:57;;;;;;;2.17;1.08;;;;;;;;;;2372982;56;21020;-79
2022/09/22 12:16:30;;;;;;;2.05;1.00;;;;;;;;;;2625724;52;21031;-78
2022/09/22 12:19:00;;;;;;;2.85;1.25;;;;;;;;;;2373504;56;21038;-79
2022/09/22 12:21:39;;;;;;;2.87;1.15;;;;;;;;;;2372010;56;21051;-80
2022/09/22 12:24:09;;;;;;;2.55;1.12;;;;;;;;;;2372928;56;21046;-77
2022/09/22 12:26:37;;;;;;;2.72;1.40;;;;;;;;;;2372760;56;21083;-78
2022/09/22 12:29:09;;;;;;;3.25;1.25;;;;;;;;;;2373249;56;21110;-80
2022/09/22 12:31:38;;;;;;;2.05;0.95;;;;;;;;;;2625603;52;21054;-81
2022/09/22 12:34:15;;;;;;;1.50;0.70;;;;;;;;;;2372694;56;21138;-80
2022/09/22 12:36:42;;;;;;;6.18;1.08;;;;;;;;;;2371487;56;21121;-79
2022/09/22 12:39:16;;;;;;;1.77;0.80;;;;;;;;;;2625134;52;21055;-82
2022/09/22 12:41:46;;;;;;;2.72;1.08;;;;;;;;;;2373655;56;21047;-79
2022/09/22 12:44:15;;;;;;;3.85;1.05;;;;;;;;;;2372395;56;21114;-79
2022/09/22 12:46:43;;;;;;;2.33;1.20;;;;;;;;;;2372343;56;21114;-81
2022/09/22 12:49:13;;;;;;;4.00;0.85;;;;;;;;;;2626033;52;21103;-82
2022/09/22 12:51:41;;;;;;;3.95;0.95;;;;;;;;;;2372215;56;21047;-80
2022/09/22 12:54:26;;;;;;;5.72;1.08;;;;;;;;;;2373407;56;21106;-79
2022/09/22 12:56:54;;;;;;;2.78;0.95;;;;;;;;;;2625951;52;21051;-79
2022/09/22 12:59:56;;;;;;;3.60;1.00;;;;;;;;;;2372548;56;21051;-79
2022/09/22 13:05:23;;;;;;;1.73;0.80;;;;;;;;;;2330411;57;22143;-80
2022/09/22 13:07:50;;;;;;;4.20;1.00;;;;;;;;;;2595611;52;21060;-80
2022/09/22 13:10:35;;;;;;;4.43;1.15;;;;;;;;;;2348036;57;21522;-81
2022/09/22 13:13:19;;;;;;;4.35;1.10;;;;;;;;;;2348645;57;21038;-82
2022/09/22 13:15:58;;;;;;;1.48;0.75;;;;;;;;;;2347765;57;21068;-82
2022/09/22 13:18:29;;;;;;;1.80;0.80;;;;;;;;;;2594451;53;21053;-76
2022/09/22 13:20:56;;;;;;;2.30;0.95;;;;;;;;;;2346308;57;21292;-77
2022/09/22 13:23:23;;;;;;;2.20;1.08;;;;;;;;;;2593325;52;21025;-75
2022/09/22 13:25:50;;;;;;;2.78;0.88;;;;;;;;;;2344825;57;21175;-76
2022/09/22 13:28:19;;;;;;;3.55;0.93;;;;;;;;;;2346518;57;21089;-75
2022/09/22 13:30:47;;;;;;;5.30;1.45;;;;;;;;;;2347997;57;21041;-75
2022/09/22 13:33:22;;;;;;;4.12;1.00;;;;;;;;;;2347134;57;21129;-76
2022/09/22 13:35:52;;;;;;;2.70;1.02;;;;;;;;;;2347070;57;22148;-77
2022/09/22 13:38:20;;;;;;;2.33;0.90;;;;;;;;;;2347878;57;21526;-77
2022/09/22 13:40:49;;;;;;;4.28;1.00;;;;;;;;;;2346430;57;21116;-76
2022/09/22 13:43:23;;;;;;;3.55;0.82;;;;;;;;;;2346007;57;21038;-76
2022/09/22 13:45:50;;;;;;;4.37;0.90;;;;;;;;;;2477680;53;21045;-75
2022/09/22 13:48:18;;;;;;;3.40;0.90;;;;;;;;;;2293318;58;21120;-79
2022/09/22 13:50:49;;;;;;;3.10;0.90;;;;;;;;;;2294228;58;21100;-80
2022/09/22 13:53:17;;;;;;;2.22;0.80;;;;;;;;;;2294113;58;21096;-78
2022/09/22 13:58:24;;;;;;;2.53;1.10;;;;;;;;;;2338584;57;27782;-79
2022/09/22 14:00:55;;;;;;;2.62;0.70;;;;;;;;;;2596189;52;21584;-79
2022/09/22 14:03:22;;;;;;;3.87;1.42;;;;;;;;;;2349137;57;21077;-79
2022/09/22 14:05:50;;;;;;;2.00;0.80;;;;;;;;;;2622948;52;21107;-80
2022/09/22 14:08:19;;;;;;;2.55;0.88;;;;;;;;;;2377441;56;21062;-79
2022/09/22 14:10:46;;;;;;;2.90;0.90;;;;;;;;;;2377926;56;21154;-80
2022/09/22 14:13:31;;;;;;;2.80;1.10;;;;;;;;;;2377167;56;21066;-80
2022/09/22 14:16:06;;;;;;;1.40;0.70;;;;;;;;;;2376987;56;21134;-78
2022/09/22 14:18:36;;;;;;;0.73;0.70;;;;;;;;;;2376537;56;21165;-78
2022/09/22 14:21:08;;;;;;;1.58;0.75;;;;;;;;;;2376325;56;21059;-75
2022/09/22 14:23:35;;;;;;;2.58;1.02;;;;;;;;;;2375932;56;21066;-78
2022/09/22 14:26:18;;;;;;;3.92;1.20;;;;;;;;;;2628866;52;21097;-76
2022/09/22 14:28:46;;;;;;;3.92;1.40;;;;;;;;;;2375411;56;21548;-79
2022/09/22 14:31:14;;;;;;;2.20;0.98;;;;;;;;;;2376044;56;21074;-78
2022/09/22 14:33:44;;;;;;;4.15;0.82;;;;;;;;;;2375833;56;21039;-78
2022/09/22 14:36:15;;;;;;;2.65;0.90;;;;;;;;;;2628806;52;21034;-79
2022/09/22 14:38:42;;;;;;;2.80;1.00;;;;;;;;;;2375666;56;21055;-79
2022/09/22 14:41:21;;;;;;;2.22;0.82;;;;;;;;;;2630268;52;21115;-78
2022/09/22 14:43:49;;;;;;;3.97;1.10;;;;;;;;;;2375524;56;21176;-79
2022/09/22 14:46:32;;;;;;;2.08;0.90;;;;;;;;;;2375279;56;21583;-78
2022/09/22 14:49:03;;;;;;;2.55;0.90;;;;;;;;;;2376007;56;21193;-78
2022/09/22 14:51:34;;;;;;;1.83;0.80;;;;;;;;;;2375159;56;21038;-78
2022/09/22 14:54:07;;;;;;;3.55;2.10;;;;;;;;;;2375161;56;21094;-76
2022/09/22 14:56:35;;;;;;;2.97;1.10;;;;;;;;;;2374256;56;21153;-77
2022/09/22 15:02:30;;;;;;;2.92;0.95;;;;;;;;;;2628280;52;21059;-76
2022/09/22 15:04:58;;;;;;;1.77;0.80;;;;;;;;;;2626326;52;21097;-79
2022/09/22 15:07:26;;;;;;;1.98;0.82;;;;;;;;;;2625705;52;21122;-78
2022/09/22 15:09:54;;;;;;;0.80;0.65;;;;;;;;;;2374021;56;21050;-79
2022/09/22 15:12:41;;;;;;;1.05;0.73;;;;;;;;;;2373482;56;21118;-78
2022/09/22 15:18:15;;;;;;;3.92;1.02;;;;;;;;;;2353675;57;22101;-77
2022/09/22 15:20:43;;;;;;;1.62;0.90;;;;;;;;;;2345865;57;21053;-78
2022/09/22 15:23:13;;;;;;;2.78;0.80;;;;;;;;;;2345122;57;21626;-77
2022/09/22 15:25:40;;;;;;;2.83;1.00;;;;;;;;;;2616722;52;21325;-77
2022/09/22 15:28:11;;;;;;;1.30;0.80;;;;;;;;;;2373964;56;21626;-79
2022/09/22 15:30:38;;;;;;;2.35;0.90;;;;;;;;;;2627218;52;21113;-79
2022/09/22 15:33:06;;;;;;;1.40;0.80;;;;;;;;;;2373020;56;21030;-75